AirNav   Everest Fuels
 
 433 users online  

AA76 Timber Trails Airport
North Pole, Alaska, USA

GOING TO NORTH POLE?


FAA INFORMATION EFFECTIVE 16 JULY 2020

Location

FAA Identifier: AA76
Lat/Long: 64-46-10.0000N 147-19-46.0000W
64-46.166667N 147-19.766667W
64.7694444,-147.3294444
(estimated)
Elevation: 480 ft. / 146 m
From city: 2 miles NNE of NORTH POLE, AK
Time zone: UTC -8 (UTC -9 during Standard Time)
Zip code: 99705

Airport Operations

Airport use: Private use. Permission required prior to landing
Activation date: 11/2008
Control tower: no
ARTCC: ANCHORAGE CENTER
FSS: FAIRBANKS FLIGHT SERVICE STATION [907-474-0788]
Attendance: UNATNDD
Segmented circle: no

Airport Communications

CTAF: 122.8
WX ASOS at FBK (8 nm NW): 119.275 (907-353-7940)
WX ASOS at FAI (14 nm W): 124.4 (907-474-8036)

Nearby radio navigation aids

VOR radial/distance  VOR name  Freq  Var
FAIr075/17.5FAIRBANKS VORTAC108.6021E

 
NDB name  Hdg/Dist  Freq  Var  ID
CHENA117/5.925717ECUN -.-. ..- -.

Airport Services

Runway Information

Runway 15/33

Dimensions: 2450 x 75 ft. / 747 x 23 m
Surface: turf
RUNWAY 15  RUNWAY 33
Traffic pattern: leftleft

Airport Ownership and Management from official FAA records

Ownership: Privately-owned
Owner: THOMAS M. ZUCCARO
5505 N BERKELEY BLV
WHITEFISH BAY, WI 53217
Phone (907) 388-1615
Manager: THOMAS M. ZUCCARO
5505 N BERKELEY BLV
WHITEFISH BAY, WI 53217
Phone (907) 388-1615

Additional Remarks

ALL ACFT MUST MONITOR AND ANNOUNCE INTENTIONS ON CTAF FREQ 122.8.
425 FT TOWER 1.6 NM SOUTH OF RY.

Instrument Procedures

There are no published instrument procedures at AA76.

Some nearby airports with instrument procedures:

PAFB - Ladd Army Airfield (8 nm NW)
PAEI - Eielson Air Force Base (9 nm SE)
PAFA - Fairbanks International Airport (14 nm W)
PANN - Nenana Municipal Airport (47 nm W)
PABI - Allen Army Airfield (62 nm SE)
 
Loc | Ops | Rwys | IFR | FBO | Links
Com | Nav | Svcs | Stats | Notes

Crowley
 
Aerial photo
No photo
 
Sectional chart

 
Airport distance calculator
Flying to Timber Trails Airport? Find the distance to fly.

From to AA76

Sunrise and sunset
Times for 04-Aug-2020
 Local
(UTC-8)
 Zulu
(UTC)
Morning civil twilight03:4011:40
Sunrise05:0513:05
Sunset22:4506:45
Evening civil twilight00:1108:11

Current date and time
Zulu (UTC)  05-Aug-2020 06:19:11
Local (UTC-8)  04-Aug-2020 22:19:11
 
METAR
PAFB 
8nm NW 
050558Z AUTO 05003KT 10SM FEW100 15/13 A2971 RMK AO2 SLP063 T01540126 10195 20154 55000 $
PAEI 
9nm SE 
050556Z 00000KT 10SM FEW060 SCT110 BKN200 15/13 A2972 RMK AO2A SLP068 60012 T01470131 10203 20147 58001 $
PAFA 
14nm W 
050553Z 00000KT 10SM FEW033 SCT095 SCT120 BKN200 16/13 A2971 RMK AO2 SLP064 60001 T01610133 10200 20161 58003
TAF
PAFB 
8nm NW 
042320Z 0423/0605 VRB06KT 9000 -SHRA BKN025 QNH2973INS TEMPO 0423/0504 8000 -SHRA VCTS BKN025CB BECMG 0503/0504 VRB06KT 9999 NSW SCT026 QNH2973INS BECMG 0504/0505 VRB06KT 9999 BKN026 QNH2972INS BECMG 0513/0514 VRB06KT 3200 BR OVC012 QNH2968INS BECMG 0520/0521 VRB06KT 8000 BR SCT026 QNH2954INS TX19/0523Z TN12/0512Z
PAEI 
9nm SE 
050600Z 0506/0612 VRB04KT 9999 SCT060 BKN100 BKN200 QNH2972INS BECMG 0511/0512 VRB03KT 9999 VCFG SCT060 SCT100 QNH2973INS TEMPO 0512/0515 3200 BR FEW009 SCT012 BECMG 0517/0518 VRB03KT 9999 NSW FEW010 SCT025 BKN040 QNH2969INS BECMG 0520/0521 03006KT 9999 SCT040 SCT100 QNH2955INS TEMPO 0522/0604 VRB10G20KT VCTS SCT030 BKN050CB BECMG 0604/0605 10006KT 9999 SCT030 SCT050 SCT090 QNH2949INS TX21/0601Z TN10/0514Z
PAFA 
14nm W 
050534Z 0506/0612 VRB04KT P6SM VCSH SCT035 SCT050 BKN100 FM051400 VRB03KT P6SM SCT050 SCT100 FM052200 08005KT P6SM VCTS BKN050CB BKN100 FM060600 06004KT P6SM SCT050 SCT100
NOTAMs
Click for the latest NOTAMs
NOTAMs are issued by the DoD/FAA and will open in a separate window not controlled by AirNav.

 

 
 

Would you like to see your business listed on this page?

 If your business provides an interesting product or service to pilots, flight crews, aircraft, or users of the Timber Trails Airport, you should consider listing it here.  To start the listing process, click on the button below
 
Add a business
 

Other Pages about Timber Trails Airport

Update a link
 
Copyright © AirNav, LLC. All rights reserved. Privacy Policy  Contact